sensor_id;sensor_type;location;lat;lon;timestamp;P1;durP1;ratioP1;P2;durP2;ratioP2
60436;SDS011;46289;51.992;4.498;2023-02-26T00:01:13;7.82;;;2.70;;
60436;SDS011;46289;51.992;4.498;2023-02-26T00:03:19;6.55;;;2.78;;
60436;SDS011;46289;51.992;4.498;2023-02-26T00:05:24;6.43;;;2.42;;
60436;SDS011;46289;51.992;4.498;2023-02-26T00:07:29;8.27;;;2.83;;
60436;SDS011;46289;51.992;4.498;2023-02-26T00:09:34;7.97;;;2.38;;
60436;SDS011;46289;51.992;4.498;2023-02-26T00:11:39;7.18;;;2.60;;
60436;SDS011;46289;51.992;4.498;2023-02-26T00:13:45;4.97;;;2.10;;
60436;SDS011;46289;51.992;4.498;2023-02-26T00:15:50;7.35;;;2.47;;
60436;SDS011;46289;51.992;4.498;2023-02-26T00:18:05;4.47;;;2.22;;
60436;SDS011;46289;51.992;4.498;2023-02-26T00:20:17;6.63;;;2.88;;
60436;SDS011;46289;51.992;4.498;2023-02-26T00:22:22;8.88;;;3.20;;
60436;SDS011;46289;51.992;4.498;2023-02-26T00:24:28;5.95;;;2.60;;
60436;SDS011;46289;51.992;4.498;2023-02-26T00:26:33;3.15;;;2.13;;
60436;SDS011;46289;51.992;4.498;2023-02-26T00:28:39;4.15;;;2.00;;
60436;SDS011;46289;51.992;4.498;2023-02-26T00:30:45;7.68;;;2.25;;
60436;SDS011;46289;51.992;4.498;2023-02-26T00:32:51;6.20;;;2.60;;
60436;SDS011;46289;51.992;4.498;2023-02-26T00:34:59;4.63;;;2.17;;
60436;SDS011;46289;51.992;4.498;2023-02-26T00:37:08;5.60;;;2.30;;
60436;SDS011;46289;51.992;4.498;2023-02-26T00:39:26;9.68;;;2.58;;
60436;SDS011;46289;51.992;4.498;2023-02-26T00:41:41;6.03;;;2.42;;
60436;SDS011;46289;51.992;4.498;2023-02-26T00:43:46;4.70;;;2.15;;
60436;SDS011;46289;51.992;4.498;2023-02-26T00:45:53;7.13;;;2.10;;
60436;SDS011;46289;51.992;4.498;2023-02-26T00:48:11;3.28;;;1.80;;
60436;SDS011;46289;51.992;4.498;2023-02-26T00:50:29;4.05;;;2.25;;
60436;SDS011;46289;51.992;4.498;2023-02-26T00:52:36;7.85;;;1.95;;
60436;SDS011;46289;51.992;4.498;2023-02-26T00:54:46;6.65;;;2.50;;
60436;SDS011;46289;51.992;4.498;2023-02-26T00:56:51;7.35;;;2.28;;
60436;SDS011;46289;51.992;4.498;2023-02-26T00:58:57;4.13;;;2.03;;
60436;SDS011;46289;51.992;4.498;2023-02-26T01:01:02;5.03;;;2.33;;
60436;SDS011;46289;51.992;4.498;2023-02-26T01:03:08;2.85;;;2.05;;
60436;SDS011;46289;51.992;4.498;2023-02-26T01:05:14;4.57;;;2.50;;
60436;SDS011;46289;51.992;4.498;2023-02-26T01:07:23;8.85;;;2.60;;
60436;SDS011;46289;51.992;4.498;2023-02-26T01:09:32;5.53;;;2.25;;
60436;SDS011;46289;51.992;4.498;2023-02-26T01:11:39;6.95;;;2.20;;
60436;SDS011;46289;51.992;4.498;2023-02-26T01:13:45;5.75;;;2.15;;
60436;SDS011;46289;51.992;4.498;2023-02-26T01:15:52;5.10;;;2.58;;
60436;SDS011;46289;51.992;4.498;2023-02-26T01:18:04;4.88;;;1.73;;
60436;SDS011;46289;51.992;4.498;2023-02-26T01:20:14;2.88;;;1.85;;
60436;SDS011;46289;51.992;4.498;2023-02-26T01:22:24;5.10;;;2.00;;
60436;SDS011;46289;51.992;4.498;2023-02-26T01:24:33;8.53;;;2.00;;
60436;SDS011;46289;51.992;4.498;2023-02-26T01:26:40;8.15;;;2.53;;
60436;SDS011;46289;51.992;4.498;2023-02-26T01:28:49;4.40;;;2.15;;
60436;SDS011;46289;51.992;4.498;2023-02-26T01:30:54;5.43;;;2.25;;
60436;SDS011;46289;51.992;4.498;2023-02-26T01:33:06;2.63;;;1.75;;
60436;SDS011;46289;51.992;4.498;2023-02-26T01:35:20;7.15;;;2.20;;
60436;SDS011;46289;51.992;4.498;2023-02-26T01:37:40;6.25;;;2.60;;
60436;SDS011;46289;51.992;4.498;2023-02-26T01:40:02;6.30;;;2.20;;
60436;SDS011;46289;51.992;4.498;2023-02-26T01:42:27;4.53;;;2.20;;
60436;SDS011;46289;51.992;4.498;2023-02-26T01:44:38;7.43;;;2.08;;
60436;SDS011;46289;51.992;4.498;2023-02-26T01:46:57;6.30;;;1.98;;
60436;SDS011;46289;51.992;4.498;2023-02-26T01:49:11;2.88;;;1.80;;
60436;SDS011;46289;51.992;4.498;2023-02-26T01:53:54;3.17;;;1.90;;
60436;SDS011;46289;51.992;4.498;2023-02-26T01:56:00;2.70;;;1.80;;
60436;SDS011;46289;51.992;4.498;2023-02-26T01:58:08;4.95;;;2.13;;
60436;SDS011;46289;51.992;4.498;2023-02-26T02:00:14;5.80;;;2.17;;
60436;SDS011;46289;51.992;4.498;2023-02-26T02:02:20;2.35;;;1.55;;
60436;SDS011;46289;51.992;4.498;2023-02-26T02:04:27;3.25;;;1.67;;
60436;SDS011;46289;51.992;4.498;2023-02-26T02:06:33;4.18;;;1.80;;
60436;SDS011;46289;51.992;4.498;2023-02-26T02:08:39;5.82;;;1.88;;
60436;SDS011;46289;51.992;4.498;2023-02-26T02:10:46;3.60;;;1.90;;
60436;SDS011;46289;51.992;4.498;2023-02-26T02:12:55;5.97;;;2.30;;
60436;SDS011;46289;51.992;4.498;2023-02-26T02:15:10;4.55;;;2.20;;
60436;SDS011;46289;51.992;4.498;2023-02-26T02:17:18;5.68;;;2.28;;
60436;SDS011;46289;51.992;4.498;2023-02-26T02:19:32;7.30;;;2.28;;
60436;SDS011;46289;51.992;4.498;2023-02-26T02:22:08;3.85;;;1.88;;
60436;SDS011;46289;51.992;4.498;2023-02-26T02:24:25;2.95;;;1.70;;
60436;SDS011;46289;51.992;4.498;2023-02-26T02:26:52;6.65;;;1.90;;
60436;SDS011;46289;51.992;4.498;2023-02-26T02:31:38;4.28;;;1.70;;
60436;SDS011;46289;51.992;4.498;2023-02-26T02:33:52;4.80;;;1.52;;
60436;SDS011;46289;51.992;4.498;2023-02-26T02:36:01;3.72;;;2.05;;
60436;SDS011;46289;51.992;4.498;2023-02-26T02:38:13;4.00;;;1.80;;
60436;SDS011;46289;51.992;4.498;2023-02-26T02:40:22;4.63;;;1.92;;
60436;SDS011;46289;51.992;4.498;2023-02-26T02:42:31;2.13;;;1.67;;
60436;SDS011;46289;51.992;4.498;2023-02-26T02:44:39;6.55;;;1.95;;
60436;SDS011;46289;51.992;4.498;2023-02-26T02:46:52;4.25;;;1.50;;
60436;SDS011;46289;51.992;4.498;2023-02-26T02:49:00;4.13;;;1.73;;
60436;SDS011;46289;51.992;4.498;2023-02-26T02:51:11;5.45;;;1.90;;
60436;SDS011;46289;51.992;4.498;2023-02-26T02:53:23;2.15;;;1.73;;
60436;SDS011;46289;51.992;4.498;2023-02-26T02:55:33;5.32;;;1.92;;
60436;SDS011;46289;51.992;4.498;2023-02-26T02:57:42;3.83;;;2.20;;
60436;SDS011;46289;51.992;4.498;2023-02-26T02:59:53;9.60;;;2.25;;
60436;SDS011;46289;51.992;4.498;2023-02-26T03:02:05;4.18;;;1.80;;
60436;SDS011;46289;51.992;4.498;2023-02-26T03:04:14;5.43;;;2.33;;
60436;SDS011;46289;51.992;4.498;2023-02-26T03:06:20;3.15;;;1.75;;
60436;SDS011;46289;51.992;4.498;2023-02-26T03:08:26;8.13;;;2.08;;
60436;SDS011;46289;51.992;4.498;2023-02-26T03:10:37;3.70;;;1.58;;
60436;SDS011;46289;51.992;4.498;2023-02-26T03:12:43;3.72;;;2.00;;
60436;SDS011;46289;51.992;4.498;2023-02-26T03:14:48;3.40;;;1.63;;
60436;SDS011;46289;51.992;4.498;2023-02-26T03:17:08;3.13;;;1.40;;
60436;SDS011;46289;51.992;4.498;2023-02-26T03:19:30;1.73;;;1.27;;
60436;SDS011;46289;51.992;4.498;2023-02-26T03:21:43;5.10;;;1.52;;
60436;SDS011;46289;51.992;4.498;2023-02-26T03:23:54;4.35;;;1.75;;
60436;SDS011;46289;51.992;4.498;2023-02-26T03:26:07;6.10;;;1.98;;
60436;SDS011;46289;51.992;4.498;2023-02-26T03:28:18;5.10;;;1.80;;
60436;SDS011;46289;51.992;4.498;2023-02-26T03:30:31;3.65;;;2.00;;
60436;SDS011;46289;51.992;4.498;2023-02-26T03:32:44;6.03;;;2.60;;
60436;SDS011;46289;51.992;4.498;2023-02-26T03:34:58;8.00;;;2.30;;
60436;SDS011;46289;51.992;4.498;2023-02-26T03:37:12;10.77;;;2.95;;
60436;SDS011;46289;51.992;4.498;2023-02-26T03:39:21;5.50;;;2.47;;
60436;SDS011;46289;51.992;4.498;2023-02-26T03:41:32;6.70;;;2.50;;
60436;SDS011;46289;51.992;4.498;2023-02-26T03:43:41;4.00;;;1.88;;
60436;SDS011;46289;51.992;4.498;2023-02-26T03:45:52;4.93;;;2.60;;
60436;SDS011;46289;51.992;4.498;2023-02-26T03:48:03;6.95;;;2.47;;
60436;SDS011;46289;51.992;4.498;2023-02-26T03:50:12;5.78;;;2.63;;
60436;SDS011;46289;51.992;4.498;2023-02-26T03:52:21;3.63;;;2.13;;
60436;SDS011;46289;51.992;4.498;2023-02-26T03:54:29;6.28;;;1.90;;
60436;SDS011;46289;51.992;4.498;2023-02-26T03:56:39;5.05;;;2.30;;
60436;SDS011;46289;51.992;4.498;2023-02-26T03:58:48;5.63;;;2.53;;
60436;SDS011;46289;51.992;4.498;2023-02-26T04:00:56;6.13;;;2.22;;
60436;SDS011;46289;51.992;4.498;2023-02-26T04:03:09;6.75;;;2.30;;
60436;SDS011;46289;51.992;4.498;2023-02-26T04:05:20;4.72;;;2.30;;
60436;SDS011;46289;51.992;4.498;2023-02-26T04:07:28;6.13;;;2.45;;
60436;SDS011;46289;51.992;4.498;2023-02-26T04:09:39;3.40;;;1.90;;
60436;SDS011;46289;51.992;4.498;2023-02-26T04:11:45;3.53;;;2.03;;
60436;SDS011;46289;51.992;4.498;2023-02-26T04:13:50;2.47;;;1.30;;
60436;SDS011;46289;51.992;4.498;2023-02-26T04:15:56;4.93;;;1.80;;
60436;SDS011;46289;51.992;4.498;2023-02-26T04:18:01;4.43;;;1.55;;
60436;SDS011;46289;51.992;4.498;2023-02-26T04:20:11;9.77;;;2.85;;
60436;SDS011;46289;51.992;4.498;2023-02-26T04:22:16;5.28;;;2.53;;
60436;SDS011;46289;51.992;4.498;2023-02-26T04:24:24;6.18;;;2.38;;
60436;SDS011;46289;51.992;4.498;2023-02-26T04:26:28;5.10;;;2.30;;
60436;SDS011;46289;51.992;4.498;2023-02-26T04:28:37;5.15;;;1.98;;
60436;SDS011;46289;51.992;4.498;2023-02-26T04:30:42;5.10;;;2.38;;
60436;SDS011;46289;51.992;4.498;2023-02-26T04:32:47;5.38;;;3.55;;
60436;SDS011;46289;51.992;4.498;2023-02-26T04:34:52;3.67;;;2.10;;
60436;SDS011;46289;51.992;4.498;2023-02-26T04:36:59;2.80;;;1.70;;
60436;SDS011;46289;51.992;4.498;2023-02-26T04:39:04;3.08;;;1.63;;
60436;SDS011;46289;51.992;4.498;2023-02-26T04:41:11;4.10;;;2.00;;
60436;SDS011;46289;51.992;4.498;2023-02-26T04:43:17;2.08;;;1.67;;
60436;SDS011;46289;51.992;4.498;2023-02-26T04:45:23;3.03;;;1.90;;
60436;SDS011;46289;51.992;4.498;2023-02-26T04:47:28;4.80;;;2.47;;
60436;SDS011;46289;51.992;4.498;2023-02-26T04:49:32;4.80;;;1.80;;
60436;SDS011;46289;51.992;4.498;2023-02-26T04:51:37;2.67;;;1.50;;
60436;SDS011;46289;51.992;4.498;2023-02-26T04:53:44;6.60;;;2.20;;
60436;SDS011;46289;51.992;4.498;2023-02-26T04:55:49;2.08;;;1.50;;
60436;SDS011;46289;51.992;4.498;2023-02-26T04:57:54;2.60;;;1.65;;
60436;SDS011;46289;51.992;4.498;2023-02-26T04:59:59;4.95;;;1.73;;
60436;SDS011;46289;51.992;4.498;2023-02-26T05:02:07;3.08;;;1.50;;
60436;SDS011;46289;51.992;4.498;2023-02-26T05:04:12;3.33;;;1.50;;
60436;SDS011;46289;51.992;4.498;2023-02-26T05:06:17;4.55;;;1.52;;
60436;SDS011;46289;51.992;4.498;2023-02-26T05:08:22;5.38;;;1.80;;
60436;SDS011;46289;51.992;4.498;2023-02-26T05:10:29;3.47;;;1.90;;
60436;SDS011;46289;51.992;4.498;2023-02-26T05:12:34;8.15;;;2.08;;
60436;SDS011;46289;51.992;4.498;2023-02-26T05:14:39;3.30;;;1.98;;
60436;SDS011;46289;51.992;4.498;2023-02-26T05:16:44;5.88;;;1.88;;
60436;SDS011;46289;51.992;4.498;2023-02-26T05:18:49;8.50;;;2.08;;
60436;SDS011;46289;51.992;4.498;2023-02-26T05:20:54;5.28;;;1.52;;
60436;SDS011;46289;51.992;4.498;2023-02-26T05:22:59;3.03;;;1.83;;
60436;SDS011;46289;51.992;4.498;2023-02-26T05:25:04;4.05;;;1.88;;
60436;SDS011;46289;51.992;4.498;2023-02-26T05:27:12;3.03;;;1.58;;
60436;SDS011;46289;51.992;4.498;2023-02-26T05:29:17;6.35;;;1.98;;
60436;SDS011;46289;51.992;4.498;2023-02-26T05:31:22;3.58;;;2.13;;
60436;SDS011;46289;51.992;4.498;2023-02-26T05:33:27;9.30;;;2.30;;
60436;SDS011;46289;51.992;4.498;2023-02-26T05:35:31;3.80;;;2.80;;
60436;SDS011;46289;51.992;4.498;2023-02-26T05:37:39;7.90;;;2.30;;
60436;SDS011;46289;51.992;4.498;2023-02-26T05:39:47;6.50;;;3.10;;
60436;SDS011;46289;51.992;4.498;2023-02-26T05:41:52;7.75;;;2.38;;
60436;SDS011;46289;51.992;4.498;2023-02-26T05:44:00;9.40;;;2.83;;
60436;SDS011;46289;51.992;4.498;2023-02-26T05:46:05;8.25;;;2.50;;
60436;SDS011;46289;51.992;4.498;2023-02-26T05:48:10;3.38;;;1.92;;
60436;SDS011;46289;51.992;4.498;2023-02-26T05:50:18;2.80;;;1.75;;
60436;SDS011;46289;51.992;4.498;2023-02-26T05:52:22;2.53;;;1.50;;
60436;SDS011;46289;51.992;4.498;2023-02-26T05:54:27;2.15;;;1.60;;
60436;SDS011;46289;51.992;4.498;2023-02-26T05:56:32;6.22;;;1.70;;
60436;SDS011;46289;51.992;4.498;2023-02-26T05:58:40;3.92;;;1.67;;
60436;SDS011;46289;51.992;4.498;2023-02-26T06:00:47;3.45;;;1.27;;
60436;SDS011;46289;51.992;4.498;2023-02-26T06:02:52;5.55;;;1.95;;
60436;SDS011;46289;51.992;4.498;2023-02-26T06:04:57;3.35;;;2.15;;
60436;SDS011;46289;51.992;4.498;2023-02-26T06:07:02;3.83;;;1.77;;
60436;SDS011;46289;51.992;4.498;2023-02-26T06:09:08;3.67;;;1.42;;
60436;SDS011;46289;51.992;4.498;2023-02-26T06:11:13;5.28;;;1.85;;
60436;SDS011;46289;51.992;4.498;2023-02-26T06:13:18;1.52;;;1.40;;
60436;SDS011;46289;51.992;4.498;2023-02-26T06:15:23;6.55;;;2.53;;
60436;SDS011;46289;51.992;4.498;2023-02-26T06:17:31;3.65;;;1.65;;
60436;SDS011;46289;51.992;4.498;2023-02-26T06:19:35;2.88;;;1.70;;
60436;SDS011;46289;51.992;4.498;2023-02-26T06:21:41;6.53;;;1.70;;
60436;SDS011;46289;51.992;4.498;2023-02-26T06:23:46;3.33;;;1.48;;
60436;SDS011;46289;51.992;4.498;2023-02-26T06:25:51;4.88;;;1.85;;
60436;SDS011;46289;51.992;4.498;2023-02-26T06:27:56;6.75;;;1.80;;
60436;SDS011;46289;51.992;4.498;2023-02-26T06:30:01;1.85;;;1.48;;
60436;SDS011;46289;51.992;4.498;2023-02-26T06:32:06;2.03;;;1.40;;
60436;SDS011;46289;51.992;4.498;2023-02-26T06:34:14;2.60;;;1.73;;
60436;SDS011;46289;51.992;4.498;2023-02-26T06:36:19;3.05;;;1.52;;
60436;SDS011;46289;51.992;4.498;2023-02-26T06:38:24;2.10;;;1.58;;
60436;SDS011;46289;51.992;4.498;2023-02-26T06:40:30;5.40;;;1.77;;
60436;SDS011;46289;51.992;4.498;2023-02-26T06:42:35;2.47;;;1.73;;
60436;SDS011;46289;51.992;4.498;2023-02-26T06:44:40;3.50;;;1.83;;
60436;SDS011;46289;51.992;4.498;2023-02-26T06:46:45;3.33;;;1.65;;
60436;SDS011;46289;51.992;4.498;2023-02-26T06:48:50;2.90;;;1.70;;
60436;SDS011;46289;51.992;4.498;2023-02-26T06:50:57;5.68;;;2.15;;
60436;SDS011;46289;51.992;4.498;2023-02-26T06:53:02;7.38;;;3.17;;
60436;SDS011;46289;51.992;4.498;2023-02-26T06:55:10;6.55;;;3.00;;
60436;SDS011;46289;51.992;4.498;2023-02-26T06:57:15;5.30;;;2.70;;
60436;SDS011;46289;51.992;4.498;2023-02-26T06:59:20;5.93;;;2.97;;
60436;SDS011;46289;51.992;4.498;2023-02-26T07:01:26;5.03;;;2.70;;
60436;SDS011;46289;51.992;4.498;2023-02-26T07:03:37;5.03;;;2.53;;
60436;SDS011;46289;51.992;4.498;2023-02-26T07:06:03;5.03;;;2.80;;
60436;SDS011;46289;51.992;4.498;2023-02-26T07:08:32;8.55;;;2.42;;
60436;SDS011;46289;51.992;4.498;2023-02-26T07:10:47;10.20;;;2.80;;
60436;SDS011;46289;51.992;4.498;2023-02-26T07:13:00;6.32;;;2.92;;
60436;SDS011;46289;51.992;4.498;2023-02-26T07:15:12;5.72;;;2.88;;
60436;SDS011;46289;51.992;4.498;2023-02-26T07:17:24;10.45;;;2.92;;
60436;SDS011;46289;51.992;4.498;2023-02-26T07:19:48;9.20;;;3.20;;
60436;SDS011;46289;51.992;4.498;2023-02-26T07:22:03;6.72;;;3.67;;
60436;SDS011;46289;51.992;4.498;2023-02-26T07:24:32;8.80;;;3.78;;
60436;SDS011;46289;51.992;4.498;2023-02-26T07:26:50;7.00;;;3.83;;
60436;SDS011;46289;51.992;4.498;2023-02-26T07:29:13;10.18;;;3.50;;
60436;SDS011;46289;51.992;4.498;2023-02-26T07:31:49;8.15;;;3.60;;
60436;SDS011;46289;51.992;4.498;2023-02-26T07:34:11;7.63;;;3.55;;
60436;SDS011;46289;51.992;4.498;2023-02-26T07:36:33;10.60;;;3.42;;
60436;SDS011;46289;51.992;4.498;2023-02-26T07:39:05;5.10;;;2.60;;
60436;SDS011;46289;51.992;4.498;2023-02-26T07:41:52;5.40;;;2.08;;
60436;SDS011;46289;51.992;4.498;2023-02-26T07:44:22;7.15;;;1.80;;
60436;SDS011;46289;51.992;4.498;2023-02-26T07:46:48;2.55;;;1.63;;
60436;SDS011;46289;51.992;4.498;2023-02-26T07:48:59;1.63;;;1.50;;
60436;SDS011;46289;51.992;4.498;2023-02-26T07:51:23;6.70;;;1.80;;
60436;SDS011;46289;51.992;4.498;2023-02-26T07:53:34;2.10;;;1.90;;
60436;SDS011;46289;51.992;4.498;2023-02-26T07:56:00;3.90;;;1.58;;
60436;SDS011;46289;51.992;4.498;2023-02-26T07:58:18;10.80;;;2.05;;
60436;SDS011;46289;51.992;4.498;2023-02-26T08:00:39;1.80;;;1.70;;
60436;SDS011;46289;51.992;4.498;2023-02-26T08:03:12;3.30;;;1.65;;
60436;SDS011;46289;51.992;4.498;2023-02-26T08:05:42;2.95;;;1.25;;
60436;SDS011;46289;51.992;4.498;2023-02-26T08:08:06;1.35;;;1.25;;
60436;SDS011;46289;51.992;4.498;2023-02-26T08:10:19;2.25;;;1.25;;
60436;SDS011;46289;51.992;4.498;2023-02-26T08:12:48;2.30;;;1.38;;
60436;SDS011;46289;51.992;4.498;2023-02-26T08:15:03;1.17;;;0.95;;
60436;SDS011;46289;51.992;4.498;2023-02-26T08:17:16;5.38;;;1.75;;
60436;SDS011;46289;51.992;4.498;2023-02-26T08:19:40;3.17;;;1.23;;
60436;SDS011;46289;51.992;4.498;2023-02-26T08:21:59;1.35;;;0.98;;
60436;SDS011;46289;51.992;4.498;2023-02-26T08:24:17;3.30;;;1.52;;
60436;SDS011;46289;51.992;4.498;2023-02-26T08:29:09;4.25;;;1.10;;
60436;SDS011;46289;51.992;4.498;2023-02-26T08:31:26;5.63;;;1.88;;
60436;SDS011;46289;51.992;4.498;2023-02-26T08:33:47;1.10;;;1.00;;
60436;SDS011;46289;51.992;4.498;2023-02-26T08:36:11;2.28;;;1.40;;
60436;SDS011;46289;51.992;4.498;2023-02-26T08:38:48;2.25;;;1.50;;
60436;SDS011;46289;51.992;4.498;2023-02-26T08:41:05;2.72;;;1.10;;
60436;SDS011;46289;51.992;4.498;2023-02-26T08:43:28;1.43;;;1.33;;
60436;SDS011;46289;51.992;4.498;2023-02-26T08:46:09;1.73;;;1.58;;
60436;SDS011;46289;51.992;4.498;2023-02-26T08:48:23;2.75;;;1.17;;
60436;SDS011;46289;51.992;4.498;2023-02-26T08:50:39;1.63;;;1.42;;
60436;SDS011;46289;51.992;4.498;2023-02-26T08:52:55;2.25;;;1.33;;
60436;SDS011;46289;51.992;4.498;2023-02-26T08:55:34;3.10;;;1.13;;
60436;SDS011;46289;51.992;4.498;2023-02-26T08:58:06;3.22;;;1.70;;
60436;SDS011;46289;51.992;4.498;2023-02-26T09:00:23;1.50;;;1.02;;
60436;SDS011;46289;51.992;4.498;2023-02-26T09:02:46;1.00;;;1.00;;
60436;SDS011;46289;51.992;4.498;2023-02-26T09:05:12;1.92;;;1.23;;
60436;SDS011;46289;51.992;4.498;2023-02-26T09:10:24;3.70;;;1.73;;
60436;SDS011;46289;51.992;4.498;2023-02-26T09:12:59;2.75;;;1.35;;
60436;SDS011;46289;51.992;4.498;2023-02-26T09:15:26;2.33;;;1.30;;
60436;SDS011;46289;51.992;4.498;2023-02-26T09:17:49;2.50;;;1.30;;
60436;SDS011;46289;51.992;4.498;2023-02-26T09:20:05;1.88;;;1.17;;
60436;SDS011;46289;51.992;4.498;2023-02-26T09:22:25;2.17;;;1.20;;
60436;SDS011;46289;51.992;4.498;2023-02-26T09:24:52;0.70;;;0.70;;
60436;SDS011;46289;51.992;4.498;2023-02-26T09:30:18;1.90;;;0.98;;
60436;SDS011;46289;51.992;4.498;2023-02-26T09:36:20;1.20;;;0.95;;
60436;SDS011;46289;51.992;4.498;2023-02-26T09:38:26;1.63;;;1.10;;
60436;SDS011;46289;51.992;4.498;2023-02-26T09:40:36;3.40;;;1.17;;
60436;SDS011;46289;51.992;4.498;2023-02-26T09:42:50;3.58;;;1.48;;
60436;SDS011;46289;51.992;4.498;2023-02-26T09:45:09;1.52;;;1.02;;
60436;SDS011;46289;51.992;4.498;2023-02-26T09:47:34;0.82;;;0.70;;
60436;SDS011;46289;51.992;4.498;2023-02-26T09:50:22;3.97;;;1.30;;
60436;SDS011;46289;51.992;4.498;2023-02-26T09:52:33;1.52;;;1.02;;
60436;SDS011;46289;51.992;4.498;2023-02-26T09:54:42;5.30;;;1.30;;
60436;SDS011;46289;51.992;4.498;2023-02-26T09:56:50;5.10;;;1.45;;
60436;SDS011;46289;51.992;4.498;2023-02-26T10:02:37;0.90;;;0.85;;
60436;SDS011;46289;51.992;4.498;2023-02-26T10:04:50;1.05;;;0.85;;
60436;SDS011;46289;51.992;4.498;2023-02-26T10:07:09;3.05;;;1.17;;
60436;SDS011;46289;51.992;4.498;2023-02-26T10:09:29;0.98;;;0.98;;
60436;SDS011;46289;51.992;4.498;2023-02-26T10:11:51;1.13;;;1.00;;
60436;SDS011;46289;51.992;4.498;2023-02-26T10:14:01;5.15;;;1.13;;
60436;SDS011;46289;51.992;4.498;2023-02-26T10:16:10;1.30;;;1.20;;
60436;SDS011;46289;51.992;4.498;2023-02-26T10:18:22;1.15;;;1.05;;
60436;SDS011;46289;51.992;4.498;2023-02-26T10:20:31;2.50;;;1.20;;
60436;SDS011;46289;51.992;4.498;2023-02-26T10:22:41;1.42;;;1.20;;
60436;SDS011;46289;51.992;4.498;2023-02-26T10:28:30;3.45;;;1.20;;
60436;SDS011;46289;51.992;4.498;2023-02-26T10:30:53;2.60;;;1.33;;
60436;SDS011;46289;51.992;4.498;2023-02-26T10:40:50;1.93;;;1.07;;
60436;SDS011;46289;51.992;4.498;2023-02-26T10:43:40;2.70;;;1.13;;
60436;SDS011;46289;51.992;4.498;2023-02-26T10:45:49;1.23;;;0.90;;
60436;SDS011;46289;51.992;4.498;2023-02-26T10:48:11;1.38;;;1.27;;
60436;SDS011;46289;51.992;4.498;2023-02-26T10:50:27;0.73;;;0.73;;
60436;SDS011;46289;51.992;4.498;2023-02-26T10:52:33;1.20;;;0.77;;
60436;SDS011;46289;51.992;4.498;2023-02-26T10:54:41;2.67;;;1.05;;
60436;SDS011;46289;51.992;4.498;2023-02-26T10:56:55;2.50;;;1.20;;
60436;SDS011;46289;51.992;4.498;2023-02-26T10:59:03;1.08;;;0.70;;
60436;SDS011;46289;51.992;4.498;2023-02-26T11:01:10;1.63;;;1.08;;
60436;SDS011;46289;51.992;4.498;2023-02-26T11:03:21;1.83;;;0.70;;
60436;SDS011;46289;51.992;4.498;2023-02-26T11:05:33;0.95;;;0.93;;
60436;SDS011;46289;51.992;4.498;2023-02-26T11:07:39;3.70;;;1.02;;
60436;SDS011;46289;51.992;4.498;2023-02-26T11:09:45;0.73;;;0.73;;
60436;SDS011;46289;51.992;4.498;2023-02-26T11:11:51;2.75;;;1.15;;
60436;SDS011;46289;51.992;4.498;2023-02-26T11:13:57;2.78;;;0.93;;
60436;SDS011;46289;51.992;4.498;2023-02-26T11:16:08;1.75;;;0.80;;
60436;SDS011;46289;51.992;4.498;2023-02-26T11:18:18;2.85;;;1.00;;
60436;SDS011;46289;51.992;4.498;2023-02-26T11:20:29;0.93;;;0.80;;
60436;SDS011;46289;51.992;4.498;2023-02-26T11:22:38;2.15;;;0.73;;
60436;SDS011;46289;51.992;4.498;2023-02-26T11:24:48;1.50;;;0.98;;
60436;SDS011;46289;51.992;4.498;2023-02-26T11:27:23;3.33;;;1.20;;
60436;SDS011;46289;51.992;4.498;2023-02-26T11:30:53;1.20;;;1.10;;
60436;SDS011;46289;51.992;4.498;2023-02-26T11:33:53;2.72;;;0.93;;
60436;SDS011;46289;51.992;4.498;2023-02-26T11:36:08;0.98;;;0.80;;
60436;SDS011;46289;51.992;4.498;2023-02-26T11:38:17;0.95;;;0.88;;
60436;SDS011;46289;51.992;4.498;2023-02-26T11:40:27;1.55;;;0.90;;
60436;SDS011;46289;51.992;4.498;2023-02-26T11:42:40;2.15;;;0.95;;
60436;SDS011;46289;51.992;4.498;2023-02-26T11:44:48;4.68;;;1.30;;
60436;SDS011;46289;51.992;4.498;2023-02-26T11:46:55;5.55;;;1.08;;
60436;SDS011;46289;51.992;4.498;2023-02-26T11:49:05;2.83;;;1.33;;
60436;SDS011;46289;51.992;4.498;2023-02-26T11:51:11;2.17;;;1.02;;
60436;SDS011;46289;51.992;4.498;2023-02-26T11:53:25;1.17;;;1.05;;
60436;SDS011;46289;51.992;4.498;2023-02-26T11:55:35;1.63;;;1.10;;
60436;SDS011;46289;51.992;4.498;2023-02-26T11:57:42;2.17;;;1.02;;
60436;SDS011;46289;51.992;4.498;2023-02-26T11:59:48;3.50;;;0.90;;
60436;SDS011;46289;51.992;4.498;2023-02-26T12:01:54;2.63;;;1.00;;
60436;SDS011;46289;51.992;4.498;2023-02-26T12:04:08;1.20;;;1.02;;
60436;SDS011;46289;51.992;4.498;2023-02-26T12:06:18;2.05;;;1.00;;
60436;SDS011;46289;51.992;4.498;2023-02-26T12:08:26;0.70;;;0.70;;
60436;SDS011;46289;51.992;4.498;2023-02-26T12:10:39;2.05;;;1.25;;
60436;SDS011;46289;51.992;4.498;2023-02-26T12:12:58;1.42;;;0.95;;
60436;SDS011;46289;51.992;4.498;2023-02-26T12:15:16;4.63;;;1.20;;
60436;SDS011;46289;51.992;4.498;2023-02-26T12:17:29;5.72;;;1.35;;
60436;SDS011;46289;51.992;4.498;2023-02-26T12:19:51;3.20;;;1.25;;
60436;SDS011;46289;51.992;4.498;2023-02-26T12:22:19;2.20;;;1.23;;
60436;SDS011;46289;51.992;4.498;2023-02-26T12:27:24;2.90;;;1.48;;
60436;SDS011;46289;51.992;4.498;2023-02-26T12:29:45;1.77;;;1.25;;
60436;SDS011;46289;51.992;4.498;2023-02-26T12:32:06;1.15;;;1.00;;
60436;SDS011;46289;51.992;4.498;2023-02-26T12:36:46;1.85;;;1.02;;
60436;SDS011;46289;51.992;4.498;2023-02-26T12:43:48;6.30;;;1.40;;
60436;SDS011;46289;51.992;4.498;2023-02-26T12:45:55;4.65;;;1.38;;
60436;SDS011;46289;51.992;4.498;2023-02-26T12:48:24;1.50;;;1.10;;
60436;SDS011;46289;51.992;4.498;2023-02-26T12:50:47;2.30;;;0.97;;
60436;SDS011;46289;51.992;4.498;2023-02-26T12:55:41;1.55;;;1.17;;
60436;SDS011;46289;51.992;4.498;2023-02-26T13:08:13;1.25;;;1.00;;
60436;SDS011;46289;51.992;4.498;2023-02-26T13:11:13;1.20;;;1.10;;
60436;SDS011;46289;51.992;4.498;2023-02-26T13:14:18;6.63;;;1.85;;
60436;SDS011;46289;51.992;4.498;2023-02-26T13:17:22;3.28;;;1.77;;
60436;SDS011;46289;51.992;4.498;2023-02-26T13:20:29;3.65;;;1.50;;
60436;SDS011;46289;51.992;4.498;2023-02-26T13:23:44;0.90;;;0.90;;
60436;SDS011;46289;51.992;4.498;2023-02-26T13:26:52;3.22;;;1.73;;
60436;SDS011;46289;51.992;4.498;2023-02-26T13:29:52;1.65;;;0.88;;
60436;SDS011;46289;51.992;4.498;2023-02-26T13:33:04;2.38;;;1.33;;
60436;SDS011;46289;51.992;4.498;2023-02-26T13:36:13;0.95;;;0.93;;
60436;SDS011;46289;51.992;4.498;2023-02-26T13:45:55;2.15;;;1.35;;
60436;SDS011;46289;51.992;4.498;2023-02-26T13:49:07;6.95;;;1.52;;
60436;SDS011;46289;51.992;4.498;2023-02-26T13:52:13;1.55;;;1.05;;
60436;SDS011;46289;51.992;4.498;2023-02-26T13:54:28;9.00;;;1.77;;
60436;SDS011;46289;51.992;4.498;2023-02-26T13:56:47;3.53;;;1.47;;
60436;SDS011;46289;51.992;4.498;2023-02-26T13:59:03;1.25;;;1.13;;
60436;SDS011;46289;51.992;4.498;2023-02-26T14:01:28;4.68;;;1.20;;
60436;SDS011;46289;51.992;4.498;2023-02-26T14:03:40;3.00;;;1.08;;
60436;SDS011;46289;51.992;4.498;2023-02-26T14:08:15;1.05;;;0.82;;
60436;SDS011;46289;51.992;4.498;2023-02-26T14:10:25;1.35;;;1.10;;
60436;SDS011;46289;51.992;4.498;2023-02-26T14:12:36;3.88;;;1.08;;
60436;SDS011;46289;51.992;4.498;2023-02-26T14:14:45;1.77;;;1.30;;
60436;SDS011;46289;51.992;4.498;2023-02-26T14:22:32;4.07;;;1.60;;
60436;SDS011;46289;51.992;4.498;2023-02-26T14:24:43;3.35;;;1.30;;
60436;SDS011;46289;51.992;4.498;2023-02-26T14:27:19;3.55;;;1.25;;
60436;SDS011;46289;51.992;4.498;2023-02-26T14:29:36;1.38;;;1.08;;
60436;SDS011;46289;51.992;4.498;2023-02-26T14:32:03;3.28;;;1.00;;
60436;SDS011;46289;51.992;4.498;2023-02-26T14:34:15;1.17;;;1.13;;
60436;SDS011;46289;51.992;4.498;2023-02-26T14:36:38;2.50;;;1.10;;
60436;SDS011;46289;51.992;4.498;2023-02-26T14:38:48;5.07;;;1.35;;
60436;SDS011;46289;51.992;4.498;2023-02-26T14:40:56;3.78;;;1.20;;